createdAt,value
2018-05-10T00:00:17.060Z,8.70
2018-05-10T00:02:44.511Z,9.63
2018-05-10T00:05:11.969Z,10.03
2018-05-10T00:07:39.441Z,10.37
2018-05-10T00:10:06.872Z,11.30
2018-05-10T00:12:34.336Z,10.33
2018-05-10T00:15:01.767Z,9.60
2018-05-10T00:17:29.218Z,11.70
2018-05-10T00:19:56.652Z,11.37
2018-05-10T00:22:24.088Z,10.50
2018-05-10T00:24:51.528Z,15.07
2018-05-10T00:27:18.992Z,11.40
2018-05-10T00:29:46.438Z,10.87
2018-05-10T00:32:13.898Z,11.00
2018-05-10T00:34:41.361Z,11.20
2018-05-10T00:37:08.797Z,12.90
2018-05-10T00:39:36.247Z,11.70
2018-05-10T00:42:03.696Z,10.97
2018-05-10T00:44:31.130Z,11.13
2018-05-10T00:46:58.565Z,10.97
2018-05-10T00:49:26.018Z,10.53
2018-05-10T00:51:53.542Z,11.80
2018-05-10T00:54:32.620Z,11.17
2018-05-10T00:57:00.064Z,12.40
2018-05-10T00:59:27.522Z,12.07
2018-05-10T01:01:54.989Z,11.93
2018-05-10T01:04:22.418Z,11.87
2018-05-10T01:06:49.859Z,12.70
2018-05-10T01:09:17.305Z,11.27
2018-05-10T01:11:45.065Z,11.47
2018-05-10T01:14:12.501Z,11.93
2018-05-10T01:16:40.065Z,12.23
2018-05-10T01:19:07.515Z,12.53
2018-05-10T01:21:34.961Z,11.40
2018-05-10T01:24:02.424Z,10.33
2018-05-10T01:26:29.922Z,11.30
2018-05-10T01:28:57.361Z,11.33
2018-05-10T01:31:24.804Z,11.43
2018-05-10T01:33:52.251Z,11.40
2018-05-10T01:36:19.689Z,9.87
2018-05-10T01:38:47.128Z,11.13
2018-05-10T01:41:14.565Z,10.90
2018-05-10T01:43:42.059Z,10.33
2018-05-10T01:46:09.564Z,10.80
2018-05-10T01:48:36.999Z,11.13
2018-05-10T01:51:04.680Z,12.43
2018-05-10T01:53:32.125Z,10.93
2018-05-10T01:55:59.567Z,10.53
2018-05-10T01:58:27.000Z,10.43
2018-05-10T02:00:54.469Z,11.90
2018-05-10T02:03:21.909Z,11.50
2018-05-10T02:05:49.362Z,11.90
2018-05-10T02:08:16.818Z,11.77
2018-05-10T02:10:44.315Z,10.47
2018-05-10T02:13:11.737Z,11.60
2018-05-10T02:15:39.185Z,11.10
2018-05-10T02:18:06.629Z,10.97
2018-05-10T02:20:34.077Z,10.97
2018-05-10T02:23:01.537Z,11.70
2018-05-10T02:25:28.968Z,12.03
2018-05-10T02:27:56.440Z,11.97
2018-05-10T02:30:23.897Z,18.00
2018-05-10T02:32:51.342Z,12.60
2018-05-10T02:35:18.848Z,13.17
2018-05-10T02:37:46.306Z,12.60
2018-05-10T02:40:13.736Z,13.33
2018-05-10T02:42:41.189Z,13.50
2018-05-10T02:45:08.781Z,12.33
2018-05-10T02:47:36.136Z,14.57
2018-05-10T02:50:03.567Z,16.83
2018-05-10T02:52:31.031Z,13.67
2018-05-10T02:54:58.470Z,14.00
2018-05-10T02:57:25.908Z,13.13
2018-05-10T02:59:53.364Z,14.43
2018-05-10T03:02:20.858Z,13.13
2018-05-10T03:04:48.301Z,13.70
2018-05-10T03:07:15.757Z,14.33
2018-05-10T03:09:43.194Z,13.73
2018-05-10T03:12:10.636Z,14.67
2018-05-10T03:14:38.101Z,13.40
2018-05-10T03:17:05.535Z,16.05
2018-05-10T03:19:32.994Z,15.30
2018-05-10T03:22:00.461Z,15.40
2018-05-10T03:24:27.901Z,16.10
2018-05-10T03:26:55.361Z,16.90
2018-05-10T03:29:22.807Z,15.70
2018-05-10T03:31:50.241Z,14.57
2018-05-10T03:34:17.673Z,13.93
2018-05-10T03:36:45.189Z,13.87
2018-05-10T03:39:12.612Z,16.53
2018-05-10T03:41:40.036Z,28.30
2018-05-10T03:44:07.483Z,13.53
2018-05-10T03:46:34.916Z,14.67
2018-05-10T03:49:02.354Z,13.17
2018-05-10T03:51:29.799Z,13.77
2018-05-10T03:53:57.255Z,14.33
2018-05-10T03:56:24.690Z,14.80
2018-05-10T03:58:52.271Z,15.77
2018-05-10T04:01:19.712Z,15.47
2018-05-10T04:03:59.062Z,13.47
2018-05-10T04:06:38.328Z,14.90
2018-05-10T04:09:17.355Z,14.30
2018-05-10T04:11:44.795Z,13.30
2018-05-10T04:14:12.224Z,61.60
2018-05-10T04:16:39.737Z,28.10
2018-05-10T04:19:08.033Z,15.97
2018-05-10T04:21:35.462Z,15.10
2018-05-10T04:24:02.906Z,14.60
2018-05-10T04:26:30.364Z,14.50
2018-05-10T04:28:57.797Z,13.23
2018-05-10T04:31:25.249Z,13.03
2018-05-10T04:33:52.677Z,13.67
2018-05-10T04:36:20.125Z,12.83
2018-05-10T04:38:47.585Z,12.03
2018-05-10T04:41:15.009Z,12.93
2018-05-10T04:43:42.447Z,12.30
2018-05-10T04:46:09.901Z,11.27
2018-05-10T04:48:37.345Z,11.60
2018-05-10T04:51:04.782Z,12.17
2018-05-10T04:53:32.278Z,12.07
2018-05-10T04:55:59.717Z,12.47
2018-05-10T04:58:27.148Z,11.83
2018-05-10T05:00:54.600Z,11.33
2018-05-10T05:03:22.064Z,12.40
2018-05-10T05:05:49.488Z,13.50
2018-05-10T05:08:16.948Z,13.53
2018-05-10T05:10:44.416Z,11.93
2018-05-10T05:13:11.873Z,13.77
2018-05-10T05:15:39.315Z,13.17
2018-05-10T05:18:06.757Z,12.93
2018-05-10T05:20:34.205Z,13.83
2018-05-10T05:23:01.681Z,14.73
2018-05-10T05:25:29.145Z,14.10
2018-05-10T05:27:56.589Z,13.23
2018-05-10T05:30:24.031Z,13.50
2018-05-10T05:32:51.471Z,15.57
2018-05-10T05:35:18.909Z,14.20
2018-05-10T05:37:46.394Z,14.83
2018-05-10T05:40:14.157Z,15.77
2018-05-10T05:42:41.581Z,16.37
2018-05-10T05:45:09.044Z,17.07
2018-05-10T05:47:36.481Z,16.00
2018-05-10T05:50:03.914Z,17.60
2018-05-10T05:52:31.366Z,17.20
2018-05-10T05:54:58.895Z,16.30
2018-05-10T05:57:26.266Z,17.47
2018-05-10T05:59:53.725Z,17.60
2018-05-10T06:02:21.174Z,15.10
2018-05-10T06:04:48.610Z,16.73
2018-05-10T06:07:16.057Z,16.10
2018-05-10T06:09:43.640Z,16.30
2018-05-10T06:12:11.114Z,50.27
2018-05-10T06:14:38.590Z,18.20
2018-05-10T06:17:06.076Z,17.70
2018-05-10T06:19:33.505Z,17.13
2018-05-10T06:22:01.572Z,15.27
2018-05-10T06:24:29.066Z,14.47
2018-05-10T06:26:56.579Z,13.93
2018-05-10T06:29:24.103Z,13.53
2018-05-10T06:31:51.485Z,14.47
2018-05-10T06:34:19.461Z,13.03
2018-05-10T06:36:46.967Z,14.40
2018-05-10T06:39:14.413Z,15.30
2018-05-10T06:41:43.084Z,13.53
2018-05-10T06:44:10.534Z,13.43
2018-05-10T06:46:37.982Z,13.73
2018-05-10T06:49:05.633Z,16.50
2018-05-10T06:51:34.088Z,14.00
2018-05-10T06:54:01.487Z,15.60
2018-05-10T06:56:28.926Z,24.90
2018-05-10T06:58:56.391Z,13.47
2018-05-10T07:01:23.826Z,12.53
2018-05-10T07:03:51.340Z,14.27
2018-05-10T07:06:18.785Z,13.00
2018-05-10T07:08:46.221Z,13.90
2018-05-10T07:11:13.672Z,12.33
2018-05-10T07:13:41.118Z,13.90
2018-05-10T07:16:08.552Z,13.02
2018-05-10T07:18:35.984Z,15.50
2018-05-10T07:21:03.480Z,12.70
2018-05-10T07:23:30.927Z,12.47
2018-05-10T07:25:58.362Z,14.63
2018-05-10T07:28:25.903Z,12.67
2018-05-10T07:30:53.367Z,14.93
2018-05-10T07:33:20.806Z,14.63
2018-05-10T07:35:48.252Z,14.00
2018-05-10T07:38:15.707Z,13.73
2018-05-10T07:40:43.150Z,15.00
2018-05-10T07:43:10.646Z,13.50
2018-05-10T07:45:38.102Z,13.83
2018-05-10T07:48:05.544Z,15.67
2018-05-10T07:50:32.993Z,21.27
2018-05-10T07:53:00.437Z,15.40
2018-05-10T07:55:27.971Z,14.37
2018-05-10T07:57:55.409Z,14.40
2018-05-10T08:00:23.661Z,13.90
2018-05-10T08:02:51.185Z,14.00
2018-05-10T08:05:18.635Z,14.77
2018-05-10T08:07:46.062Z,13.70
2018-05-10T08:10:13.597Z,14.83
2018-05-10T08:12:41.014Z,14.43
2018-05-10T08:15:08.481Z,14.00
2018-05-10T08:17:36.327Z,15.20
2018-05-10T08:20:03.769Z,14.23
2018-05-10T08:22:31.204Z,13.20
2018-05-10T08:25:00.419Z,14.07
2018-05-10T08:27:39.790Z,12.97
2018-05-10T08:30:07.226Z,15.23
2018-05-10T08:32:34.670Z,13.00
2018-05-10T08:35:02.138Z,13.20
2018-05-10T08:37:29.572Z,12.40
2018-05-10T08:39:57.006Z,12.93
2018-05-10T08:42:24.454Z,12.20
2018-05-10T08:44:51.946Z,14.80
2018-05-10T08:47:19.373Z,14.47
2018-05-10T08:49:46.925Z,18.37
2018-05-10T08:52:14.393Z,13.40
2018-05-10T08:54:41.821Z,18.33
2018-05-10T08:57:09.278Z,14.07
2018-05-10T08:59:36.709Z,13.03
2018-05-10T09:02:04.141Z,13.50
2018-05-10T09:04:31.607Z,13.57
2018-05-10T09:06:59.037Z,13.83
2018-05-10T09:09:26.468Z,13.13
2018-05-10T09:11:53.920Z,11.87
2018-05-10T09:14:21.358Z,12.73
2018-05-10T09:16:48.824Z,12.93
2018-05-10T09:19:16.268Z,12.57
2018-05-10T09:21:43.700Z,13.07
2018-05-10T09:24:11.230Z,10.00
2018-05-10T09:26:38.681Z,11.90
2018-05-10T09:29:06.118Z,12.00
2018-05-10T09:31:33.585Z,11.90
2018-05-10T09:34:01.174Z,12.37
2018-05-10T09:36:28.617Z,9.38
2018-05-10T09:38:56.069Z,10.10
2018-05-10T09:41:23.516Z,11.40
2018-05-10T09:43:50.950Z,11.63
2018-05-10T09:46:18.420Z,10.47
2018-05-10T09:48:45.843Z,10.33
2018-05-10T09:51:13.285Z,11.20
2018-05-10T09:53:40.725Z,12.30
2018-05-10T09:56:08.273Z,9.30
2018-05-10T09:58:35.698Z,8.30
2018-05-10T10:01:03.125Z,8.10
2018-05-10T10:03:30.645Z,8.53
2018-05-10T10:05:58.069Z,10.63
2018-05-10T10:08:25.493Z,9.17
2018-05-10T10:10:52.929Z,7.63
2018-05-10T10:13:20.359Z,9.20
2018-05-10T10:15:48.341Z,8.43
2018-05-10T10:18:15.801Z,8.70
2018-05-10T10:20:43.261Z,10.17
2018-05-10T10:23:10.689Z,8.03
2018-05-10T10:25:38.128Z,7.13
2018-05-10T10:28:05.630Z,8.87
2018-05-10T10:30:33.058Z,9.10
2018-05-10T10:33:00.536Z,8.07
2018-05-10T10:35:27.996Z,8.87
2018-05-10T10:37:55.430Z,8.47
2018-05-10T10:40:22.870Z,7.40
2018-05-10T10:42:50.291Z,9.10
2018-05-10T10:45:17.732Z,7.93
2018-05-10T10:47:45.206Z,6.47
2018-05-10T10:50:12.625Z,6.30
2018-05-10T10:52:40.049Z,6.40
2018-05-10T10:55:07.498Z,11.77
2018-05-10T10:57:35.009Z,6.80
2018-05-10T11:00:02.475Z,5.20
2018-05-10T11:02:29.965Z,5.57
2018-05-10T11:04:57.401Z,6.37
2018-05-10T11:07:24.837Z,5.40
2018-05-10T11:09:52.289Z,5.43
2018-05-10T11:12:19.710Z,5.30
2018-05-10T11:14:47.138Z,4.80
2018-05-10T11:17:14.601Z,4.70
2018-05-10T11:19:42.124Z,4.13
2018-05-10T11:22:09.584Z,3.33
2018-05-10T11:24:37.110Z,3.43
2018-05-10T11:27:04.528Z,3.67
2018-05-10T11:29:31.979Z,5.20
2018-05-10T11:31:59.416Z,4.00
2018-05-10T11:34:26.870Z,3.10
2018-05-10T11:36:54.702Z,2.93
2018-05-10T11:39:22.190Z,2.43
2018-05-10T11:41:49.650Z,4.90
2018-05-10T11:44:17.354Z,2.67
2018-05-10T11:46:44.798Z,2.80
2018-05-10T11:49:12.326Z,3.60
2018-05-10T11:51:39.753Z,2.97
2018-05-10T11:54:07.190Z,4.80
2018-05-10T11:56:34.607Z,3.57
2018-05-10T11:59:02.030Z,4.40
2018-05-10T12:01:29.501Z,2.60
2018-05-10T12:03:56.929Z,2.53
2018-05-10T12:06:24.425Z,2.60
2018-05-10T12:08:51.878Z,2.87
2018-05-10T12:11:19.338Z,3.30
2018-05-10T12:13:46.761Z,3.23
2018-05-10T12:16:14.199Z,3.23
2018-05-10T12:18:41.679Z,3.33
2018-05-10T12:21:09.184Z,3.20
2018-05-10T12:23:36.617Z,3.77
2018-05-10T12:26:04.089Z,3.40
2018-05-10T12:28:31.522Z,3.90
2018-05-10T12:30:58.992Z,2.90
2018-05-10T12:33:26.560Z,3.00
2018-05-10T12:35:53.984Z,4.83
2018-05-10T12:38:21.417Z,4.00
2018-05-10T12:40:48.844Z,3.10
2018-05-10T12:43:16.277Z,3.13
2018-05-10T12:45:43.722Z,3.70
2018-05-10T12:48:11.203Z,3.90
2018-05-10T12:50:38.650Z,4.10
2018-05-10T12:53:06.086Z,3.70
2018-05-10T12:55:33.506Z,3.80
2018-05-10T12:58:00.973Z,4.30
2018-05-10T13:00:28.477Z,4.00
2018-05-10T13:02:55.982Z,3.63
2018-05-10T13:05:23.333Z,3.50
2018-05-10T13:07:50.859Z,4.23
2018-05-10T13:10:18.345Z,4.20
2018-05-10T13:12:45.769Z,3.50
2018-05-10T13:15:13.225Z,3.50
2018-05-10T13:17:40.675Z,3.70
2018-05-10T13:20:08.101Z,4.10
2018-05-10T13:22:35.541Z,4.10
2018-05-10T13:25:02.963Z,5.13
2018-05-10T13:27:30.405Z,4.60
2018-05-10T13:29:57.845Z,5.80
2018-05-10T13:32:25.268Z,2.77
2018-05-10T13:34:52.696Z,3.60
2018-05-10T13:37:20.224Z,3.37
2018-05-10T13:39:47.644Z,3.90
2018-05-10T13:42:15.148Z,3.30
2018-05-10T13:44:42.586Z,7.13
2018-05-10T13:47:10.116Z,3.60
2018-05-10T13:49:37.456Z,3.80
2018-05-10T13:52:04.906Z,5.77
2018-05-10T13:54:32.350Z,3.77
2018-05-10T13:56:59.771Z,3.60
2018-05-10T13:59:27.210Z,5.27
2018-05-10T14:01:54.641Z,3.67
2018-05-10T14:04:22.062Z,3.10
2018-05-10T14:06:49.498Z,3.90
2018-05-10T14:09:16.930Z,7.17
2018-05-10T14:11:44.362Z,7.87
2018-05-10T14:14:11.791Z,4.50
2018-05-10T14:16:39.280Z,3.27
2018-05-10T14:19:06.693Z,3.73
2018-05-10T14:21:34.129Z,3.50
2018-05-10T14:24:01.550Z,3.37
2018-05-10T14:26:28.983Z,4.30
2018-05-10T14:28:56.434Z,4.60
2018-05-10T14:31:23.857Z,3.50
2018-05-10T14:33:51.286Z,5.00
2018-05-10T14:36:18.790Z,4.70
2018-05-10T14:38:46.222Z,4.00
2018-05-10T14:41:13.673Z,3.90
2018-05-10T14:43:41.108Z,4.53
2018-05-10T14:46:08.538Z,4.97
2018-05-10T14:48:35.962Z,5.00
2018-05-10T14:51:03.406Z,4.73
2018-05-10T14:53:30.834Z,4.80
2018-05-10T14:55:58.356Z,4.70
2018-05-10T14:58:25.796Z,5.10
2018-05-10T15:00:53.229Z,4.50
2018-05-10T15:03:20.648Z,4.03
2018-05-10T15:05:48.085Z,3.93
2018-05-10T15:08:15.519Z,4.67
2018-05-10T15:10:42.937Z,4.30
2018-05-10T15:13:10.377Z,4.23
2018-05-10T15:15:37.891Z,4.67
2018-05-10T15:18:05.259Z,4.40
2018-05-10T15:20:32.693Z,4.33
2018-05-10T15:23:00.116Z,4.67
2018-05-10T15:25:27.546Z,4.40
2018-05-10T15:27:54.992Z,4.10
2018-05-10T15:30:22.421Z,4.23
2018-05-10T15:32:49.849Z,4.90
2018-05-10T15:35:17.289Z,4.73
2018-05-10T15:37:44.731Z,4.63
2018-05-10T15:40:12.180Z,6.33
2018-05-10T15:42:39.616Z,5.20
2018-05-10T15:45:07.044Z,4.17
2018-05-10T15:47:34.474Z,4.57
2018-05-10T15:50:01.918Z,4.33
2018-05-10T15:52:29.362Z,4.80
2018-05-10T15:54:56.872Z,3.53
2018-05-10T15:57:24.314Z,3.40
2018-05-10T15:59:51.737Z,3.60
2018-05-10T16:02:19.160Z,4.10
2018-05-10T16:04:46.606Z,5.57
2018-05-10T16:07:14.034Z,4.10
2018-05-10T16:09:41.459Z,4.40
2018-05-10T16:12:08.902Z,3.13
2018-05-10T16:14:36.334Z,3.90
2018-05-10T16:17:03.801Z,4.60
2018-05-10T16:19:31.244Z,3.90
2018-05-10T16:21:58.681Z,4.07
2018-05-10T16:24:26.101Z,4.30
2018-05-10T16:26:53.549Z,3.70
2018-05-10T16:29:20.973Z,4.47
2018-05-10T16:31:48.978Z,5.47
2018-05-10T16:34:16.418Z,4.17
2018-05-10T16:36:43.852Z,5.20
2018-05-10T16:39:11.282Z,3.97
2018-05-10T16:41:38.718Z,3.90
2018-05-10T16:44:06.157Z,4.30
2018-05-10T16:46:33.580Z,4.30
2018-05-10T16:49:01.024Z,4.17
2018-05-10T16:51:28.483Z,3.23
2018-05-10T16:53:55.912Z,3.83
2018-05-10T16:56:23.374Z,3.63
2018-05-10T16:58:50.804Z,3.50
2018-05-10T17:01:18.234Z,4.10
2018-05-10T17:03:45.673Z,3.63
2018-05-10T17:06:13.105Z,6.10
2018-05-10T17:08:40.545Z,3.60
2018-05-10T17:11:07.985Z,3.77
2018-05-10T17:13:35.413Z,3.57
2018-05-10T17:16:02.858Z,3.83
2018-05-10T17:18:30.379Z,3.67
2018-05-10T17:20:57.748Z,3.80
2018-05-10T17:23:25.177Z,5.00
2018-05-10T17:25:52.619Z,4.60
2018-05-10T17:28:20.069Z,4.13
2018-05-10T17:30:47.499Z,3.50
2018-05-10T17:33:14.948Z,3.90
2018-05-10T17:35:42.380Z,3.70
2018-05-10T17:38:09.819Z,6.00
2018-05-10T17:40:37.271Z,9.00
2018-05-10T17:43:04.707Z,4.23
2018-05-10T17:45:32.152Z,4.50
2018-05-10T17:47:59.607Z,3.30
2018-05-10T17:50:27.048Z,4.07
2018-05-10T17:52:54.490Z,6.00
2018-05-10T17:55:22.054Z,3.20
2018-05-10T17:57:49.429Z,7.20
2018-05-10T18:00:16.863Z,4.10
2018-05-10T18:02:44.548Z,4.00
2018-05-10T18:05:12.020Z,3.50
2018-05-10T18:07:39.446Z,3.30
2018-05-10T18:10:06.933Z,3.73
2018-05-10T18:12:34.365Z,5.77
2018-05-10T18:15:02.834Z,4.00
2018-05-10T18:17:30.268Z,6.97
2018-05-10T18:19:57.785Z,8.17
2018-05-10T18:22:25.228Z,5.20
2018-05-10T18:24:52.679Z,4.77
2018-05-10T18:27:20.101Z,3.77
2018-05-10T18:29:47.525Z,3.70
2018-05-10T18:32:14.965Z,3.80
2018-05-10T18:34:42.401Z,3.93
2018-05-10T18:37:09.833Z,4.03
2018-05-10T18:39:37.274Z,4.10
2018-05-10T18:42:04.727Z,4.00
2018-05-10T18:44:32.151Z,3.73
2018-05-10T18:47:00.293Z,3.70
2018-05-10T18:49:27.720Z,4.10
2018-05-10T18:51:55.151Z,3.90
2018-05-10T18:54:22.592Z,4.90
2018-05-10T18:56:50.025Z,3.80
2018-05-10T18:59:17.458Z,4.10
2018-05-10T19:01:44.942Z,4.03
2018-05-10T19:04:12.416Z,3.80
2018-05-10T19:06:39.850Z,4.30
2018-05-10T19:09:07.318Z,4.27
2018-05-10T19:11:34.740Z,3.97
2018-05-10T19:14:02.170Z,4.00
2018-05-10T19:16:29.630Z,3.93
2018-05-10T19:18:57.057Z,3.93
2018-05-10T19:21:24.485Z,8.07
2018-05-10T19:23:51.936Z,4.80
2018-05-10T19:26:19.383Z,4.03
2018-05-10T19:28:46.819Z,4.67
2018-05-10T19:31:14.257Z,4.73
2018-05-10T19:33:41.680Z,4.20
2018-05-10T19:36:09.109Z,6.00
2018-05-10T19:38:36.613Z,5.10
2018-05-10T19:41:04.055Z,3.97
2018-05-10T19:43:31.527Z,4.50
2018-05-10T19:45:59.041Z,3.93
2018-05-10T19:48:26.494Z,4.93
2018-05-10T19:50:53.944Z,4.13
2018-05-10T19:53:21.389Z,4.40
2018-05-10T19:55:48.918Z,4.87
2018-05-10T19:58:16.414Z,5.23
2018-05-10T20:00:43.940Z,4.27
2018-05-10T20:03:11.393Z,10.27
2018-05-10T20:05:38.820Z,11.17
2018-05-10T20:08:06.265Z,8.50
2018-05-10T20:10:33.704Z,6.40
2018-05-10T20:13:01.218Z,5.23
2018-05-10T20:15:28.969Z,5.30
2018-05-10T20:17:56.412Z,5.27
2018-05-10T20:20:23.842Z,6.00
2018-05-10T20:22:51.286Z,5.50
2018-05-10T20:25:18.805Z,6.33
2018-05-10T20:27:46.233Z,5.57
2018-05-10T20:30:13.679Z,5.00
2018-05-10T20:32:41.105Z,4.50
2018-05-10T20:35:08.527Z,5.83
2018-05-10T20:37:36.720Z,6.13
2018-05-10T20:40:04.149Z,6.80
2018-05-10T20:42:31.573Z,6.50
2018-05-10T20:44:59.077Z,6.90
2018-05-10T20:47:26.508Z,7.07
2018-05-10T20:49:53.938Z,8.00
2018-05-10T20:52:21.469Z,6.33
2018-05-10T20:54:48.907Z,5.73
2018-05-10T20:57:16.351Z,5.40
2018-05-10T20:59:43.785Z,5.40
2018-05-10T21:02:11.212Z,4.97
2018-05-10T21:04:38.645Z,5.73
2018-05-10T21:07:06.094Z,5.77
2018-05-10T21:09:33.520Z,7.50
2018-05-10T21:12:01.009Z,7.10
2018-05-10T21:14:28.471Z,5.90
2018-05-10T21:16:55.926Z,6.90
2018-05-10T21:19:23.386Z,7.50
2018-05-10T21:21:50.839Z,7.73
2018-05-10T21:24:18.269Z,8.77
2018-05-10T21:26:45.780Z,9.90
2018-05-10T21:29:13.213Z,9.90
2018-05-10T21:31:40.641Z,10.33
2018-05-10T21:34:08.077Z,11.80
2018-05-10T21:36:35.591Z,11.10
2018-05-10T21:39:03.033Z,11.63
2018-05-10T21:41:30.497Z,12.53
2018-05-10T21:43:58.021Z,13.33
2018-05-10T21:46:25.456Z,12.57
2018-05-10T21:48:52.896Z,14.63
2018-05-10T21:51:20.340Z,15.03
2018-05-10T21:53:47.777Z,15.13
2018-05-10T21:56:15.211Z,16.50
2018-05-10T21:58:42.652Z,16.20
2018-05-10T22:01:10.094Z,16.77
2018-05-10T22:03:37.550Z,15.63
2018-05-10T22:06:05.944Z,16.45
2018-05-10T22:08:33.398Z,16.27
2018-05-10T22:11:00.830Z,16.40
2018-05-10T22:13:28.279Z,20.80
2018-05-10T22:15:55.720Z,18.70
2018-05-10T22:18:23.152Z,20.60
2018-05-10T22:20:50.597Z,21.13
2018-05-10T22:23:18.155Z,22.30
2018-05-10T22:25:45.587Z,24.37
2018-05-10T22:28:13.028Z,22.90
2018-05-10T22:30:40.457Z,23.50
2018-05-10T22:33:07.887Z,22.87
2018-05-10T22:35:35.374Z,26.13
2018-05-10T22:38:02.789Z,23.03
2018-05-10T22:40:30.228Z,24.63
2018-05-10T22:42:57.697Z,24.20
2018-05-10T22:45:25.132Z,23.80
2018-05-10T22:47:52.573Z,23.67
2018-05-10T22:50:20.017Z,25.03
2018-05-10T22:52:47.453Z,24.23
2018-05-10T22:55:14.884Z,24.00
2018-05-10T22:57:42.378Z,24.93
2018-05-10T23:00:09.816Z,24.23
2018-05-10T23:02:37.248Z,28.33
2018-05-10T23:05:04.690Z,29.30
2018-05-10T23:07:32.134Z,26.93
2018-05-10T23:09:59.560Z,27.93
2018-05-10T23:12:27.004Z,29.70
2018-05-10T23:14:54.445Z,32.67
2018-05-10T23:17:22.190Z,32.40
2018-05-10T23:19:49.671Z,34.90
2018-05-10T23:22:17.102Z,37.13
2018-05-10T23:24:44.533Z,34.63
2018-05-10T23:27:12.057Z,32.83
2018-05-10T23:29:39.439Z,36.90
2018-05-10T23:32:06.865Z,36.53
2018-05-10T23:34:34.305Z,30.77
2018-05-10T23:37:01.749Z,27.40
2018-05-10T23:39:29.188Z,31.90
2018-05-10T23:41:56.670Z,26.60
2018-05-10T23:44:24.104Z,26.30
2018-05-10T23:46:51.539Z,27.00
2018-05-10T23:49:18.981Z,31.93
2018-05-10T23:51:46.411Z,31.10
2018-05-10T23:54:13.868Z,27.70
2018-05-10T23:56:41.312Z,28.97
2018-05-10T23:59:08.740Z,27.50
